Time;durP1;ratioP1;P1;durP2;ratioP2;P2;SDS_P1;SDS_P2;PMS_P1;PMS_P2;Temp;Humidity;BMP_temperature;BMP_pressure;BME280_temperature;BME280_humidity;BME280_pressure;Samples;Min_cycle;Max_cycle;Signal;HPM_P1;HPM_P2
2022/07/29 00:00:57;;;;;;;5.43;2.05;;;;;;;15.29;55.54;98736.94;4201275;28;20052;-70
2022/07/29 00:02:57;;;;;;;8.82;1.92;;;;;;;15.36;55.53;98744.50;4201456;28;20069;-70
2022/07/29 00:04:58;;;;;;;4.50;1.73;;;;;;;15.37;55.24;98732.94;4201447;28;20044;-71
2022/07/29 00:06:58;;;;;;;5.32;2.22;;;;;;;15.40;55.50;98731.38;4201639;28;20230;-70
2022/07/29 00:08:59;;;;;;;2.63;1.95;;;;;;;15.40;55.79;98729.38;4201111;28;20174;-71
2022/07/29 00:10:59;;;;;;;2.60;1.70;;;;;;;15.39;55.35;98729.75;4201536;28;20123;-71
2022/07/29 00:12:59;;;;;;;5.13;1.80;;;;;;;15.37;55.66;98727.38;4201008;28;20052;-70
2022/07/29 00:15:00;;;;;;;3.55;2.35;;;;;;;15.39;55.91;98729.75;4200404;28;20044;-71
2022/07/29 00:17:00;;;;;;;3.95;1.95;;;;;;;15.35;55.86;98724.19;4201290;28;20048;-71
2022/07/29 00:19:01;;;;;;;3.70;2.10;;;;;;;15.31;56.22;98725.44;4201422;28;20391;-71
2022/07/29 00:21:01;;;;;;;3.42;1.90;;;;;;;15.24;56.57;98733.81;4201588;28;20056;-70
2022/07/29 00:23:01;;;;;;;5.85;2.08;;;;;;;15.20;56.72;98731.00;4201416;28;20278;-70
2022/07/29 00:25:02;;;;;;;6.28;2.30;;;;;;;15.18;56.20;98725.84;4201724;28;20369;-70
2022/07/29 00:27:02;;;;;;;9.00;2.17;;;;;;;15.15;56.59;98723.88;4198150;28;20442;-70
2022/07/29 00:29:04;;;;;;;4.15;2.00;;;;;;;15.08;57.20;98721.09;4199965;28;20044;-70
2022/07/29 00:31:04;;;;;;;3.08;1.92;;;;;;;15.03;57.12;98717.94;4203414;28;20067;-71
2022/07/29 00:33:04;;;;;;;5.88;2.70;;;;;;;14.98;57.38;98712.78;4204012;28;20187;-71
2022/07/29 00:37:25;;;;;;;3.72;1.90;;;;;;;14.87;57.47;98718.34;4205037;28;20059;-70
2022/07/29 00:39:25;;;;;;;7.88;2.15;;;;;;;14.81;57.79;98708.81;4204451;28;20044;-70
2022/07/29 00:41:26;;;;;;;3.17;1.90;;;;;;;14.76;58.21;98712.81;4204289;28;20044;-70
2022/07/29 00:43:26;;;;;;;7.05;2.28;;;;;;;14.74;58.47;98715.22;4204462;28;20531;-70
2022/07/29 00:45:27;;;;;;;4.82;1.90;;;;;;;14.77;58.09;98719.19;4205058;28;20122;-70
2022/07/29 00:47:27;;;;;;;5.18;2.22;;;;;;;14.78;58.47;98715.97;4204764;28;20150;-70
2022/07/29 00:49:28;;;;;;;6.55;1.77;;;;;;;14.78;58.43;98715.19;4202682;28;20420;-70
2022/07/29 00:51:28;;;;;;;4.75;2.25;;;;;;;14.73;58.50;98710.00;4205095;28;20048;-70
2022/07/29 00:53:30;;;;;;;4.10;2.03;;;;;;;14.72;58.25;98709.22;4203469;28;20164;-70
2022/07/29 00:55:31;;;;;;;3.67;2.17;;;;;;;14.70;58.09;98706.06;4204188;28;20049;-70
2022/07/29 00:57:31;;;;;;;5.97;2.38;;;;;;;14.74;58.24;98706.84;4204868;28;20567;-70
2022/07/29 00:59:32;;;;;;;7.53;1.90;;;;;;;14.73;58.66;98701.66;4204077;28;20265;-70
2022/07/29 01:01:32;;;;;;;4.28;2.05;;;;;;;14.75;58.11;98702.06;4203950;28;20365;-70
2022/07/29 01:03:33;;;;;;;3.75;2.00;;;;;;;14.77;58.31;98699.69;4203462;28;20080;-70
2022/07/29 01:05:34;;;;;;;4.35;2.15;;;;;;;14.72;58.58;98703.66;4204546;28;20090;-70
2022/07/29 01:07:36;;;;;;;5.03;2.42;;;;;;;14.70;58.85;98703.25;4203827;28;20375;-70
2022/07/29 01:09:37;;;;;;;5.57;2.00;;;;;;;14.65;58.60;98702.91;4202981;28;20052;-70
2022/07/29 01:11:39;;;;;;;7.57;3.55;;;;;;;14.63;59.11;98694.91;4203000;28;20046;-70
2022/07/29 01:13:40;;;;;;;3.97;1.92;;;;;;;14.55;59.04;98682.19;4203142;28;20047;-70
2022/07/29 01:15:45;;;;;;;6.05;2.28;;;;;;;14.53;58.79;98676.25;4203770;28;20048;-70
2022/07/29 01:17:55;;;;;;;9.68;2.55;;;;;;;14.47;59.49;98667.50;4203400;28;20040;-70
2022/07/29 01:20:07;;;;;;;6.00;2.70;;;;;;;14.44;58.78;98670.25;4203764;28;20048;-70
2022/07/29 01:22:29;;;;;;;4.95;2.10;;;;;;;14.34;60.43;98677.44;4204006;28;20044;-70
2022/07/29 01:24:48;;;;;;;8.07;2.67;;;;;;;14.26;60.48;98670.28;4201669;28;20481;-71
2022/07/29 01:26:58;;;;;;;4.38;2.47;;;;;;;14.25;60.52;98671.47;4203840;28;20063;-70
2022/07/29 01:29:18;;;;;;;4.78;2.30;;;;;;;14.21;61.27;98656.75;4202560;28;20071;-71
2022/07/29 01:31:25;;;;;;;8.70;2.13;;;;;;;14.20;61.40;98657.94;4203575;28;20056;-70
2022/07/29 01:35:46;;;;;;;7.18;2.10;;;;;;;14.23;60.64;98659.91;4202977;28;20105;-70
2022/07/29 01:37:55;;;;;;;3.95;2.30;;;;;;;14.21;61.44;98657.53;4203916;28;20043;-70
2022/07/29 01:39:58;;;;;;;7.38;2.50;;;;;;;14.21;61.28;98662.31;4202142;28;20089;-70
2022/07/29 01:42:10;;;;;;;6.32;2.15;;;;;;;14.15;62.22;98652.75;4203800;28;20104;-70
2022/07/29 01:44:16;;;;;;;6.43;2.70;;;;;;;14.11;61.98;98651.97;4201984;28;20105;-71
2022/07/29 01:46:36;;;;;;;5.10;2.55;;;;;;;14.08;62.00;98658.34;4202898;28;20024;-70
2022/07/29 01:48:48;;;;;;;3.67;2.30;;;;;;;14.07;61.72;98654.78;4204205;28;20499;-70
2022/07/29 01:50:56;;;;;;;12.02;2.47;;;;;;;14.04;62.27;98661.91;4204188;28;20062;-70
2022/07/29 01:53:00;;;;;;;7.88;2.85;;;;;;;14.03;62.54;98668.66;4204133;28;20040;-70
2022/07/29 01:55:08;;;;;;;8.00;2.40;;;;;;;14.03;62.75;98668.66;4202567;28;20083;-70
2022/07/29 01:57:11;;;;;;;5.82;2.28;;;;;;;14.02;62.73;98661.50;4202699;28;20130;-70
2022/07/29 01:59:11;;;;;;;7.72;2.40;;;;;;;14.02;62.85;98660.72;4202530;28;20387;-70
2022/07/29 02:01:13;;;;;;;4.55;2.33;;;;;;;14.05;62.42;98660.72;4202476;28;20036;-70
2022/07/29 02:03:17;;;;;;;9.82;3.05;;;;;;;14.09;61.44;98657.16;4202690;28;20131;-70
2022/07/29 02:05:20;;;;;;;7.53;2.40;;;;;;;14.10;61.62;98653.19;4202964;28;20210;-70
2022/07/29 02:07:23;;;;;;;13.70;3.00;;;;;;;14.10;62.60;98658.75;4201516;28;20484;-70
2022/07/29 02:09:24;;;;;;;;;;;;;;;14.05;63.11;98657.13;4199441;28;20048;-70
2022/07/29 02:11:25;;;;;;;6.03;2.30;;;;;;;13.96;64.11;98656.75;4201278;28;19927;-70
2022/07/29 02:13:27;;;;;;;7.30;2.15;;;;;;;13.90;64.77;98638.84;4200339;28;20384;-70
2022/07/29 02:15:31;;;;;;;8.52;1.92;;;;;;;13.85;64.26;98642.84;4200964;28;20054;-70
2022/07/29 02:17:41;;;;;;;5.00;2.20;;;;;;;13.85;64.67;98647.59;4203673;28;20054;-70
2022/07/29 02:19:43;;;;;;;5.05;1.98;;;;;;;13.83;64.98;98645.22;4200732;28;20131;-70
2022/07/29 02:21:45;;;;;;;5.82;1.90;;;;;;;13.82;64.96;98640.03;4200844;28;20577;-70
2022/07/29 02:23:47;;;;;;;6.65;2.10;;;;;;;13.78;65.48;98637.25;4199503;28;20379;-70
2022/07/29 02:25:51;;;;;;;4.40;2.15;;;;;;;13.76;65.39;98648.00;4200965;28;20082;-70
2022/07/29 02:27:52;;;;;;;6.55;2.60;;;;;;;13.74;65.21;98645.59;4201032;28;20047;-70
2022/07/29 02:29:54;;;;;;;4.30;2.10;;;;;;;13.75;64.42;98647.19;4201423;28;20043;-70
2022/07/29 02:31:56;;;;;;;8.50;2.28;;;;;;;13.78;64.68;98645.59;4201986;28;20073;-70
2022/07/29 02:33:58;;;;;;;3.38;1.90;;;;;;;13.74;64.76;98647.59;4197690;28;20494;-70
2022/07/29 02:35:59;;;;;;;5.72;2.28;;;;;;;13.73;64.41;98640.41;4200992;28;20695;-70
2022/07/29 02:40:18;;;;;;;7.10;2.20;;;;;;;13.71;64.88;98640.81;4201788;28;20999;-70
2022/07/29 02:42:22;;;;;;;13.30;3.03;;;;;;;13.69;64.79;98634.06;4200596;28;20071;-70
2022/07/29 02:44:25;;;;;;;7.55;2.55;;;;;;;13.69;64.69;98632.09;4199632;28;20531;-70
2022/07/29 02:46:34;;;;;;;6.85;2.60;;;;;;;13.74;64.42;98630.91;4200464;28;20051;-71
2022/07/29 02:48:38;;;;;;;8.82;2.90;;;;;;;13.72;65.29;98627.72;4201725;28;20068;-70
2022/07/29 02:50:45;;;;;;;7.03;2.65;;;;;;;13.69;65.42;98640.41;4199415;28;20064;-70
2022/07/29 02:53:16;;;;;;;13.77;2.60;;;;;;;13.70;64.63;98635.66;4200187;28;20112;-70
2022/07/29 02:55:24;;;;;;;7.80;2.60;;;;;;;13.65;65.49;98628.53;4199552;28;20046;-71
2022/07/29 02:57:47;;;;;;;6.22;2.42;;;;;;;13.60;65.65;98623.34;4199702;28;20040;-70
2022/07/29 02:59:51;;;;;;;;;;;;;;;13.56;65.72;98628.06;4200420;28;20044;-70
2022/07/29 03:01:54;;;;;;;5.78;2.17;;;;;;;13.52;65.94;98626.50;4199889;28;19922;-70
2022/07/29 03:03:55;;;;;;;6.18;2.28;;;;;;;13.45;66.17;98630.84;4200035;28;20472;-70
2022/07/29 03:05:57;;;;;;;4.53;2.80;;;;;;;13.41;65.93;98626.47;4200168;28;20120;-70
2022/07/29 03:08:02;;;;;;;8.13;2.58;;;;;;;13.39;66.94;98624.06;4199636;28;20083;-70
2022/07/29 03:15:57;;;;;;;7.40;2.72;;;;;;;13.33;66.35;98633.22;4196434;28;20092;-70
2022/07/29 03:17:58;;;;;;;4.72;2.30;;;;;;;13.31;66.78;98628.03;4201185;28;20119;-70
2022/07/29 03:19:59;;;;;;;4.43;2.30;;;;;;;13.38;66.40;98638.38;4199837;28;20097;-70
2022/07/29 03:21:59;;;;;;;7.32;2.10;;;;;;;13.38;66.70;98639.16;4201020;28;20447;-70
2022/07/29 03:24:00;;;;;;;8.90;2.65;;;;;;;13.35;67.23;98639.97;4200924;28;20038;-70
2022/07/29 03:26:00;;;;;;;9.48;2.53;;;;;;;13.34;67.51;98638.38;4199735;28;20435;-70
2022/07/29 03:28:00;;;;;;;11.45;2.30;;;;;;;13.34;67.58;98645.91;4200351;28;20036;-70
2022/07/29 03:30:01;;;;;;;12.63;2.90;;;;;;;13.35;67.73;98645.50;4199845;28;20035;-71
2022/07/29 03:32:04;;;;;;;12.40;3.65;;;;;;;13.39;68.10;98643.53;4198888;28;20032;-70
2022/07/29 03:34:04;;;;;;;8.18;2.88;;;;;;;13.36;68.27;98644.31;4202001;28;20284;-70
2022/07/29 03:36:05;;;;;;;15.77;3.17;;;;;;;13.38;68.35;98649.47;4197733;28;20035;-71
2022/07/29 03:38:05;;;;;;;12.55;3.63;;;;;;;13.37;68.49;98640.34;4198944;28;20364;-71
2022/07/29 03:40:08;;;;;;;16.45;3.75;;;;;;;13.36;68.81;98635.19;4200024;28;20024;-70
2022/07/29 03:42:13;;;;;;;7.80;2.90;;;;;;;13.37;68.72;98636.78;4198389;28;20020;-70
2022/07/29 03:44:16;;;;;;;6.85;2.92;;;;;;;13.36;68.91;98640.75;4212582;28;20039;-70
2022/07/29 03:46:17;;;;;;;;;;;;;;;13.34;69.17;98635.59;4200908;28;20050;-70
2022/07/29 03:48:20;;;;;;;4.85;2.63;;;;;;;13.33;69.27;98642.34;4200726;28;20333;-70
2022/07/29 03:50:21;;;;;;;7.38;3.22;;;;;;;13.35;68.78;98633.59;4198075;28;23327;-70
2022/07/29 03:52:22;;;;;;;5.40;1.92;;;;;;;13.33;68.48;98630.44;4200574;28;20097;-70
2022/07/29 03:54:22;;;;;;;5.20;1.98;;;;;;;13.33;67.96;98631.22;4197682;28;20119;-70
2022/07/29 03:56:24;;;;;;;3.17;2.08;;;;;;;13.27;68.70;98632.00;4199910;28;20513;-71
2022/07/29 03:58:27;;;;;;;7.15;2.47;;;;;;;13.25;68.96;98632.38;4199970;28;20075;-70
2022/07/29 04:00:28;;;;;;;;;;;;;;;13.23;68.70;98629.19;4200364;28;20051;-70
2022/07/29 04:02:28;;;;;;;4.10;2.42;;;;;;;13.17;68.67;98614.88;4197916;28;19928;-70
2022/07/29 04:04:32;;;;;;;4.88;2.13;;;;;;;13.15;68.83;98627.53;4198181;28;20337;-70
2022/07/29 04:06:44;;;;;;;6.90;3.83;;;;;;;13.12;69.29;98622.78;4199897;28;20135;-70
2022/07/29 04:08:45;;;;;;;3.53;2.38;;;;;;;13.12;69.28;98611.66;4198630;28;20043;-70
2022/07/29 04:10:45;;;;;;;8.00;2.42;;;;;;;13.12;68.46;98615.22;4197639;28;20041;-71
2022/07/29 04:12:45;;;;;;;3.78;2.38;;;;;;;13.11;68.10;98612.84;4199235;28;20040;-70
2022/07/29 04:14:46;;;;;;;4.03;2.40;;;;;;;13.13;68.05;98607.69;4200701;28;20050;-70
2022/07/29 04:16:46;;;;;;;5.85;3.10;;;;;;;13.13;67.68;98614.03;4199637;28;20557;-70
2022/07/29 04:18:47;;;;;;;3.92;2.35;;;;;;;13.18;67.77;98618.44;4198875;28;20123;-70
2022/07/29 04:20:47;;;;;;;8.13;2.90;;;;;;;13.17;68.04;98619.63;4198604;28;20040;-70
2022/07/29 04:22:47;;;;;;;8.15;2.80;;;;;;;13.14;67.86;98617.63;4200148;28;20105;-70
2022/07/29 04:24:48;;;;;;;6.32;2.33;;;;;;;13.12;67.59;98629.13;4198614;28;20472;-70
2022/07/29 04:26:49;;;;;;;8.77;3.28;;;;;;;13.06;67.68;98618.78;4197358;28;20547;-70
2022/07/29 04:28:49;;;;;;;7.05;2.70;;;;;;;13.05;67.91;98629.09;4197544;28;20070;-70
2022/07/29 04:30:50;;;;;;;9.63;2.95;;;;;;;13.00;68.14;98629.50;4199967;28;20624;-70
2022/07/29 04:32:50;;;;;;;4.25;2.35;;;;;;;13.02;68.32;98634.66;4200573;28;20036;-70
2022/07/29 04:34:50;;;;;;;7.70;2.97;;;;;;;12.98;68.70;98631.84;4198284;28;20055;-70
2022/07/29 04:36:51;;;;;;;12.68;3.22;;;;;;;12.98;69.92;98642.16;4200622;28;20043;-70
2022/07/29 04:38:51;;;;;;;11.52;2.58;;;;;;;13.00;68.90;98648.13;4197997;28;20044;-70
2022/07/29 04:40:51;;;;;;;5.38;2.38;;;;;;;12.96;69.72;98639.78;4200069;28;20239;-70
2022/07/29 04:42:52;;;;;;;9.48;2.55;;;;;;;12.94;70.33;98645.72;4199159;28;20157;-70
2022/07/29 04:44:52;;;;;;;9.68;3.03;;;;;;;12.92;70.61;98645.31;4196915;28;20040;-70
2022/07/29 04:46:52;;;;;;;4.63;2.15;;;;;;;12.92;70.08;98641.75;4198514;28;20074;-70
2022/07/29 04:48:53;;;;;;;6.85;2.97;;;;;;;12.91;70.05;98640.97;4197335;28;20923;-70
2022/07/29 04:50:53;;;;;;;3.83;2.10;;;;;;;12.96;70.31;98645.31;4199329;28;20651;-70
2022/07/29 04:52:53;;;;;;;4.85;2.72;;;;;;;12.95;70.78;98660.41;4201578;28;20303;-70
2022/07/29 04:54:53;;;;;;;4.68;2.72;;;;;;;12.92;71.43;98652.84;4197856;28;20056;-70
2022/07/29 04:56:54;;;;;;;7.15;2.40;;;;;;;12.92;71.77;98652.84;4201104;28;20443;-70
2022/07/29 04:58:54;;;;;;;9.95;2.63;;;;;;;12.95;71.17;98649.28;4146675;28;20055;-70
2022/07/29 05:00:55;;;;;;;6.03;2.67;;;;;;;12.98;71.94;98647.72;4197047;28;20044;-70
2022/07/29 05:02:55;;;;;;;6.45;2.78;;;;;;;12.99;71.77;98649.28;4200677;28;20449;-70
2022/07/29 05:04:55;;;;;;;7.75;2.42;;;;;;;13.00;71.71;98662.03;4200384;28;20047;-70
2022/07/29 05:06:56;;;;;;;4.80;3.05;;;;;;;12.98;72.03;98656.03;4200996;28;20061;-70
2022/07/29 05:08:56;;;;;;;10.57;2.97;;;;;;;12.99;72.04;98650.13;4200649;28;20036;-70
2022/07/29 05:10:56;;;;;;;5.22;2.88;;;;;;;13.06;71.81;98660.44;4199566;28;20373;-70
2022/07/29 05:12:57;;;;;;;4.63;2.80;;;;;;;13.11;71.75;98654.53;4200080;28;20586;-70
2022/07/29 05:14:57;;;;;;;8.50;2.80;;;;;;;13.18;71.35;98660.91;4200212;28;20537;-70
2022/07/29 05:16:58;;;;;;;5.90;2.75;;;;;;;13.20;71.77;98652.19;4201455;28;20494;-70
2022/07/29 05:18:58;;;;;;;6.75;3.40;;;;;;;13.24;71.69;98650.25;4202277;28;20720;-70
2022/07/29 05:20:58;;;;;;;4.65;2.80;;;;;;;13.37;71.19;98651.47;4204033;28;20121;-70
2022/07/29 05:23:00;;;;;;;8.52;3.17;;;;;;;13.52;69.78;98645.94;4204688;28;20075;-70
2022/07/29 05:25:02;;;;;;;7.35;3.15;;;;;;;13.66;68.83;98640.44;4202178;28;20094;-70
2022/07/29 05:27:02;;;;;;;5.68;2.80;;;;;;;13.85;68.23;98645.63;4204269;28;20044;-70
2022/07/29 05:29:02;;;;;;;6.00;2.78;;;;;;;13.99;67.63;98639.28;4202900;28;20570;-70
2022/07/29 05:31:03;;;;;;;8.15;3.58;;;;;;;14.15;67.85;98641.63;4202069;28;20048;-70
2022/07/29 05:33:03;;;;;;;6.90;3.03;;;;;;;14.27;67.23;98646.81;4201902;28;20077;-70
2022/07/29 05:35:04;;;;;;;7.90;2.78;;;;;;;14.41;66.46;98640.44;4202376;28;20119;-70
2022/07/29 05:37:05;;;;;;;13.82;2.83;;;;;;;14.52;65.62;98644.03;4202987;28;20044;-70
2022/07/29 05:39:05;;;;;;;6.53;2.78;;;;;;;14.65;65.29;98644.41;4203066;28;20185;-70
2022/07/29 05:41:06;;;;;;;4.75;2.85;;;;;;;14.76;64.70;98645.19;4204048;28;20314;-70
2022/07/29 05:43:06;;;;;;;10.13;3.45;;;;;;;14.88;64.60;98641.94;4202874;28;20121;-70
2022/07/29 05:45:07;;;;;;;5.35;2.58;;;;;;;15.00;64.77;98638.72;4203146;28;20042;-70
2022/07/29 05:47:07;;;;;;;6.47;2.63;;;;;;;15.09;63.75;98638.31;4202152;28;20134;-70
2022/07/29 05:49:08;;;;;;;4.53;2.65;;;;;;;15.19;62.87;98637.47;4203478;28;20036;-70
2022/07/29 05:51:08;;;;;;;3.85;2.22;;;;;;;15.26;62.75;98643.00;4203205;28;20111;-70
2022/07/29 05:53:08;;;;;;;5.32;2.22;;;;;;;15.24;62.52;98639.03;4203825;28;20496;-70
2022/07/29 05:55:09;;;;;;;6.07;2.40;;;;;;;15.28;62.54;98640.59;4203321;28;20046;-70
2022/07/29 05:57:20;;;;;;;5.80;2.80;;;;;;;15.30;62.27;98631.81;4204024;28;20055;-70
2022/07/29 05:59:21;;;;;;;4.63;2.63;;;;;;;15.31;62.26;98636.22;4202972;28;20048;-70
2022/07/29 06:01:21;;;;;;;3.65;2.30;;;;;;;15.32;62.43;98635.03;4204017;28;20044;-70
2022/07/29 06:03:21;;;;;;;6.13;2.63;;;;;;;15.29;63.01;98631.03;4203267;28;20408;-71
2022/07/29 06:05:22;;;;;;;5.72;2.50;;;;;;;15.27;63.42;98632.66;4201628;28;20524;-70
2022/07/29 06:07:22;;;;;;;3.58;2.17;;;;;;;15.24;63.49;98627.91;4204339;28;20332;-70
2022/07/29 06:09:23;;;;;;;5.22;2.38;;;;;;;15.33;62.81;98626.25;4201463;28;20040;-70
2022/07/29 06:11:23;;;;;;;7.13;2.70;;;;;;;15.43;62.79;98628.19;4200296;28;20055;-70
2022/07/29 06:13:24;;;;;;;11.27;3.00;;;;;;;15.58;62.55;98637.25;4202772;28;20492;-70
2022/07/29 06:15:24;;;;;;;4.10;2.35;;;;;;;15.70;62.02;98633.22;4202429;28;20052;-70
2022/07/29 06:17:25;;;;;;;5.93;2.20;;;;;;;15.82;61.07;98631.97;4202245;28;20063;-70
2022/07/29 06:19:25;;;;;;;6.45;3.10;;;;;;;15.93;60.91;98641.03;4200658;28;20139;-70
2022/07/29 06:21:25;;;;;;;6.25;2.20;;;;;;;16.06;59.96;98649.72;4200264;28;20055;-70
2022/07/29 06:23:26;;;;;;;8.63;2.70;;;;;;;16.17;59.25;98653.22;4199179;28;20036;-71
2022/07/29 06:25:30;;;;;;;6.95;2.40;;;;;;;16.25;58.78;98643.56;4196469;28;20355;-71
2022/07/29 06:27:30;;;;;;;5.35;2.80;;;;;;;16.32;58.26;98649.09;4197640;28;20335;-71
2022/07/29 06:29:30;;;;;;;6.45;2.80;;;;;;;16.39;58.03;98648.25;4192383;28;20101;-71
2022/07/29 06:31:31;;;;;;;7.97;4.13;;;;;;;16.44;58.65;98645.78;4196433;28;20044;-70
2022/07/29 06:33:31;;;;;;;6.03;2.90;;;;;;;16.50;57.66;98646.94;4201182;28;20040;-70
2022/07/29 06:35:35;;;;;;;4.07;2.33;;;;;;;16.58;57.78;98644.88;4201620;28;20202;-71
2022/07/29 06:37:36;;;;;;;10.20;2.85;;;;;;;16.67;57.22;98647.16;4199451;28;20496;-71
2022/07/29 06:39:37;;;;;;;8.15;2.78;;;;;;;16.76;56.63;98651.09;4199647;28;20121;-71
2022/07/29 06:41:37;;;;;;;5.88;2.28;;;;;;;16.86;57.46;98652.19;4202731;28;20547;-70
2022/07/29 06:43:41;;;;;;;4.57;2.40;;;;;;;16.94;56.12;98652.91;4200585;28;20436;-70
2022/07/29 06:45:42;;;;;;;7.43;2.40;;;;;;;17.01;55.78;98650.03;4200881;28;20042;-70
2022/07/29 06:47:43;;;;;;;8.10;2.53;;;;;;;17.08;55.42;98644.34;4199565;28;20097;-70
2022/07/29 06:49:43;;;;;;;10.18;2.50;;;;;;;17.15;54.83;98641.47;4200310;28;20049;-70
2022/07/29 06:51:43;;;;;;;5.28;2.75;;;;;;;17.27;54.87;98640.91;4199700;28;20480;-70
2022/07/29 06:53:44;;;;;;;5.65;2.42;;;;;;;17.32;54.71;98637.66;4200650;28;20039;-70
2022/07/29 06:55:44;;;;;;;6.22;2.40;;;;;;;17.42;54.63;98633.13;4202059;28;20399;-70
2022/07/29 06:57:46;;;;;;;8.25;2.58;;;;;;;17.50;54.38;98634.63;4199048;28;20036;-70
2022/07/29 06:59:46;;;;;;;4.05;2.30;;;;;;;17.67;54.10;98635.56;4195477;28;20032;-70
2022/07/29 07:01:47;;;;;;;4.85;2.53;;;;;;;17.83;52.82;98640.56;4202310;28;20353;-70
2022/07/29 07:03:47;;;;;;;3.90;2.60;;;;;;;18.07;52.82;98633.78;4202208;28;20081;-70
2022/07/29 07:05:48;;;;;;;5.40;2.60;;;;;;;18.21;53.01;98632.78;4200514;28;20044;-70
2022/07/29 07:07:49;;;;;;;8.65;2.17;;;;;;;18.43;52.38;98642.38;4202040;28;20406;-71
2022/07/29 07:09:49;;;;;;;5.00;2.88;;;;;;;18.53;51.59;98635.00;4201554;28;20036;-71
2022/07/29 07:11:49;;;;;;;6.57;2.08;;;;;;;18.66;51.45;98626.81;4201229;28;20101;-71
2022/07/29 07:13:50;;;;;;;6.20;2.20;;;;;;;18.67;50.91;98629.19;4200315;28;20067;-71
2022/07/29 07:15:51;;;;;;;3.28;2.30;;;;;;;18.72;50.46;98634.28;4196497;28;20472;-71
2022/07/29 07:17:51;;;;;;;10.25;2.83;;;;;;;18.66;50.33;98630.41;4198759;28;20388;-71
2022/07/29 07:19:52;;;;;;;9.80;3.17;;;;;;;18.61;50.29;98635.66;4200949;28;20048;-71
2022/07/29 07:21:53;;;;;;;6.43;2.45;;;;;;;18.54;50.91;98636.59;4202898;28;20044;-71
2022/07/29 07:23:53;;;;;;;6.50;2.38;;;;;;;18.68;50.09;98638.38;4202172;28;20147;-71
2022/07/29 07:25:53;;;;;;;3.88;2.05;;;;;;;18.80;49.61;98634.97;4200841;28;20391;-71
2022/07/29 07:27:54;;;;;;;9.52;2.28;;;;;;;18.94;48.96;98643.06;4201365;28;20421;-71
2022/07/29 07:29:54;;;;;;;5.95;2.60;;;;;;;19.00;48.49;98641.34;4200573;28;20566;-71
2022/07/29 07:31:54;;;;;;;5.32;2.22;;;;;;;19.03;48.77;98632.09;4201708;28;20156;-71
2022/07/29 07:33:55;;;;;;;7.05;2.70;;;;;;;19.11;48.23;98638.31;4201974;28;20083;-70
2022/07/29 07:35:55;;;;;;;8.82;2.40;;;;;;;19.11;47.95;98634.72;4201509;28;20044;-70
2022/07/29 07:37:56;;;;;;;4.47;2.05;;;;;;;19.08;47.93;98625.97;4202071;28;20535;-71
2022/07/29 07:39:57;;;;;;;5.60;2.13;;;;;;;19.19;47.85;98634.16;4200164;28;20032;-71
2022/07/29 07:41:58;;;;;;;6.22;2.33;;;;;;;19.28;47.35;98627.97;4201988;28;20487;-71
2022/07/29 07:43:58;;;;;;;5.75;2.10;;;;;;;19.38;47.10;98629.78;4200713;28;20038;-71
2022/07/29 07:45:59;;;;;;;10.05;2.10;;;;;;;19.44;46.90;98630.81;4200968;28;20078;-71
2022/07/29 07:47:59;;;;;;;5.57;2.08;;;;;;;19.51;47.02;98627.06;4202283;28;20039;-71
2022/07/29 07:50:00;;;;;;;5.25;1.85;;;;;;;19.58;46.71;98622.13;4200054;28;20040;-71
2022/07/29 07:52:00;;;;;;;5.38;2.30;;;;;;;19.68;46.97;98631.53;4200534;28;20384;-71
2022/07/29 07:54:00;;;;;;;2.67;1.95;;;;;;;19.74;46.66;98626.19;4200924;28;20032;-71
2022/07/29 07:56:01;;;;;;;8.65;2.47;;;;;;;19.82;46.40;98619.19;4201627;28;20136;-71
2022/07/29 07:58:01;;;;;;;5.53;2.45;;;;;;;19.85;46.00;98633.13;4201490;28;20028;-71
2022/07/29 08:00:03;;;;;;;5.38;2.28;;;;;;;19.87;45.63;98630.69;4192068;28;20036;-71
2022/07/29 08:02:03;;;;;;;4.10;2.17;;;;;;;19.89;44.83;98627.44;4201846;28;20492;-71
2022/07/29 08:04:04;;;;;;;8.10;2.08;;;;;;;19.93;45.08;98628.94;4200518;28;20024;-71
2022/07/29 08:06:05;;;;;;;6.97;2.45;;;;;;;20.00;45.38;98632.81;4202586;28;20035;-71
2022/07/29 08:08:06;;;;;;;3.33;1.90;;;;;;;20.11;45.11;98628.53;4201922;28;20028;-71
2022/07/29 08:10:07;;;;;;;8.77;2.20;;;;;;;20.15;44.57;98626.41;4201984;28;20089;-71
2022/07/29 08:12:07;;;;;;;5.70;2.00;;;;;;;20.19;44.15;98624.31;4201595;28;20602;-71
2022/07/29 08:14:08;;;;;;;6.82;2.10;;;;;;;20.27;44.70;98626.91;4201434;28;20031;-71
2022/07/29 08:16:12;;;;;;;6.07;2.05;;;;;;;20.40;44.54;98625.00;4202407;28;20156;-71
2022/07/29 08:18:13;;;;;;;5.28;2.42;;;;;;;20.50;43.96;98623.16;4197870;28;20396;-71
2022/07/29 08:20:13;;;;;;;3.38;2.20;;;;;;;20.58;42.19;98622.53;4199088;28;20053;-70
2022/07/29 08:22:14;;;;;;;5.43;2.20;;;;;;;20.77;42.88;98626.47;4200523;28;20024;-71
2022/07/29 08:26:33;;;;;;;7.57;2.33;;;;;;;20.76;41.73;98625.63;4199886;28;20348;-71
2022/07/29 08:28:33;;;;;;;5.00;2.00;;;;;;;20.85;42.41;98622.22;4198522;28;20539;-71
2022/07/29 08:30:34;;;;;;;4.07;2.20;;;;;;;20.92;42.38;98622.00;4202330;28;20056;-71
2022/07/29 08:32:35;;;;;;;7.40;2.50;;;;;;;20.97;41.90;98615.84;4201302;28;20036;-71
2022/07/29 08:34:35;;;;;;;6.18;2.03;;;;;;;21.01;42.40;98615.72;4199589;28;20089;-71
2022/07/29 08:36:35;;;;;;;4.25;2.17;;;;;;;21.02;42.40;98615.31;4200394;28;20359;-71
2022/07/29 08:38:36;;;;;;;3.97;2.45;;;;;;;21.26;41.12;98612.97;4199763;28;20040;-71
2022/07/29 08:40:36;;;;;;;5.25;1.90;;;;;;;21.49;41.04;98611.13;4199099;28;20581;-72
2022/07/29 08:42:37;;;;;;;5.38;2.28;;;;;;;21.68;41.70;98614.97;4198648;28;20369;-72
2022/07/29 08:44:38;;;;;;;7.85;2.22;;;;;;;21.90;41.33;98618.72;4197974;28;20089;-71
2022/07/29 08:46:41;;;;;;;4.65;2.28;;;;;;;22.06;40.42;98615.75;4200724;28;20099;-71
2022/07/29 08:48:41;;;;;;;11.18;2.40;;;;;;;21.92;39.62;98604.16;4196133;28;20127;-71
2022/07/29 08:50:42;;;;;;;17.83;2.60;;;;;;;21.91;40.95;98608.22;4199952;28;21113;-71
2022/07/29 08:52:43;;;;;;;11.30;2.65;;;;;;;21.89;40.33;98611.50;4202031;28;20059;-71
2022/07/29 08:54:44;;;;;;;7.32;2.70;;;;;;;21.89;41.24;98600.22;4201509;28;20063;-71
2022/07/29 08:56:48;;;;;;;5.15;2.00;;;;;;;21.98;42.07;98616.44;4204969;28;20040;-71
2022/07/29 08:58:49;;;;;;;6.35;2.30;;;;;;;21.95;41.35;98600.47;4203845;28;20044;-71
2022/07/29 09:00:53;;;;;;;5.07;2.20;;;;;;;21.94;41.51;98605.31;4203470;28;20036;-71
2022/07/29 09:02:58;;;;;;;3.28;2.22;;;;;;;21.97;41.40;98606.44;4203243;28;20051;-71
2022/07/29 09:05:00;;;;;;;8.23;2.40;;;;;;;22.00;41.81;98606.31;4204787;28;20066;-71
2022/07/29 09:07:03;;;;;;;4.25;1.98;;;;;;;22.08;42.11;98604.06;4204659;28;20093;-71
2022/07/29 09:09:04;;;;;;;4.47;2.10;;;;;;;22.18;41.89;98597.31;4204117;28;20036;-71
2022/07/29 09:11:04;;;;;;;6.72;2.20;;;;;;;22.36;41.26;98600.31;4204460;28;20365;-71
2022/07/29 09:13:05;;;;;;;5.35;2.45;;;;;;;22.47;41.56;98596.34;4203208;28;20036;-71
2022/07/29 09:15:05;;;;;;;6.38;2.65;;;;;;;22.51;41.11;98605.44;4202787;28;20396;-71
2022/07/29 09:17:07;;;;;;;5.05;2.30;;;;;;;22.53;40.59;98597.34;4202634;28;20125;-71
2022/07/29 09:19:29;;;;;;;5.38;2.28;;;;;;;22.58;40.22;98591.09;4204113;28;20040;-72
2022/07/29 09:21:59;;;;;;;5.30;2.25;;;;;;;22.66;40.12;98589.59;4202723;28;20135;-72
2022/07/29 09:24:07;;;;;;;6.82;2.45;;;;;;;22.67;40.38;98594.00;4203730;28;20399;-72
2022/07/29 09:26:07;;;;;;;7.30;2.50;;;;;;;22.71;40.46;98583.38;4203885;28;20055;-71
2022/07/29 09:28:10;;;;;;;6.88;2.30;;;;;;;22.83;40.45;98588.19;4203928;28;20020;-71
2022/07/29 09:30:14;;;;;;;7.45;2.42;;;;;;;23.02;39.96;98585.53;4204584;28;20086;-72
2022/07/29 09:32:14;;;;;;;7.75;2.70;;;;;;;23.11;40.36;98580.75;4203282;28;20039;-71
2022/07/29 09:34:21;;;;;;;3.25;2.35;;;;;;;23.16;39.40;98580.13;4205114;28;20359;-72
2022/07/29 09:36:21;;;;;;;10.05;2.15;;;;;;;23.24;39.06;98583.47;4204209;28;20078;-71
2022/07/29 09:38:22;;;;;;;3.72;2.67;;;;;;;23.31;38.91;98576.78;4204472;28;20040;-71
2022/07/29 09:40:27;;;;;;;5.38;2.20;;;;;;;23.34;39.15;98582.31;4204218;28;20819;-72
2022/07/29 09:42:29;;;;;;;7.43;2.65;;;;;;;23.31;39.36;98573.94;4205075;28;20889;-71
2022/07/29 09:44:48;;;;;;;8.90;2.83;;;;;;;23.25;38.73;98579.41;4204050;28;20042;-71
2022/07/29 09:47:05;;;;;;;4.10;2.42;;;;;;;23.34;38.92;98582.31;4203384;28;20048;-71
2022/07/29 09:49:10;;;;;;;5.85;2.30;;;;;;;23.36;38.85;98576.19;4203893;28;20036;-71
2022/07/29 09:51:18;;;;;;;8.10;2.72;;;;;;;23.36;39.01;98579.00;4203784;28;20101;-71